Time,TemperatureF,DewpointF,PressureIn,WindDirection,WindDirectionDegrees,WindSpeedMPH,WindSpeedGustMPH,Humidity,HourlyPrecipIn,Conditions,Clouds,dailyrainin,SoftwareType,DateUTC
2013-01-11 00:03:00,62.0,-99.9,30.11,SSE,157,9.0,11.0,-999,-99.99,,,-99.99,,2013-01-11 06:03:00,
2013-01-11 00:12:00,61.0,-99.9,30.11,SSE,157,6.0,7.0,-999,-99.99,,,-99.99,,2013-01-11 06:12:00,
2013-01-11 00:22:00,62.0,-99.9,30.11,SSE,153,6.0,6.0,-999,-99.99,,,-99.99,,2013-01-11 06:22:00,
2013-01-11 00:33:00,62.0,-99.9,30.11,SSE,153,5.0,6.0,-999,-99.99,,,-99.99,,2013-01-11 06:33:00,
2013-01-11 00:42:00,61.0,-99.9,30.12,SSE,165,4.0,4.0,-999,-99.99,,,-99.99,,2013-01-11 06:42:00,
2013-01-11 00:52:00,61.0,-99.9,30.11,South,172,2.0,3.0,-999,-99.99,,,-99.99,,2013-01-11 06:52:00,
2013-01-11 01:02:00,61.0,-99.9,30.11,SE,146,1.0,3.0,-999,-99.99,,,-99.99,,2013-01-11 07:02:00,
2013-01-11 01:12:00,62.0,-99.9,30.11,SE,136,4.0,4.0,-999,-99.99,,,-99.99,,2013-01-11 07:12:00,
2013-01-11 01:22:00,62.0,-99.9,30.11,SE,145,6.0,7.0,-999,-99.99,,,-99.99,,2013-01-11 07:22:00,
2013-01-11 01:32:00,63.0,-99.9,30.11,SE,141,6.0,7.0,-999,-99.99,,,-99.99,,2013-01-11 07:32:00,
2013-01-11 01:42:00,64.0,-99.9,30.10,SE,140,6.0,8.0,-999,-99.99,,,-99.99,,2013-01-11 07:42:00,
2013-01-11 01:53:00,64.0,-99.9,30.10,SSE,149,7.0,9.0,-999,-99.99,,,-99.99,,2013-01-11 07:53:00,
2013-01-11 02:02:00,64.0,-99.9,30.10,SE,144,8.0,10.0,-999,-99.99,,,-99.99,,2013-01-11 08:02:00,
2013-01-11 02:12:00,64.0,-99.9,30.09,SE,142,8.0,10.0,-999,-99.99,,,-99.99,,2013-01-11 08:12:00,
2013-01-11 02:22:00,64.0,-99.9,30.08,SE,138,7.0,9.0,-999,-99.99,,,-99.99,,2013-01-11 08:22:00,
2013-01-11 02:32:00,64.0,-99.9,30.08,SE,138,8.0,10.0,-999,-99.99,,,-99.99,,2013-01-11 08:32:00,
2013-01-11 02:42:00,64.0,-99.9,30.08,SSE,149,9.0,11.0,-999,-99.99,,,-99.99,,2013-01-11 08:42:00,
2013-01-11 02:53:00,63.0,-99.9,30.08,SSE,149,9.0,11.0,-999,-99.99,,,-99.99,,2013-01-11 08:53:00,
2013-01-11 03:03:00,63.0,-99.9,30.07,SSE,149,9.0,11.0,-999,-99.99,,,-99.99,,2013-01-11 09:03:00,
2013-01-11 03:12:00,63.0,-99.9,30.08,SSE,155,9.0,11.0,-999,-99.99,,,-99.99,,2013-01-11 09:12:00,
2013-01-11 03:23:00,62.0,-99.9,30.07,SSE,149,9.0,10.0,-999,-99.99,,,-99.99,,2013-01-11 09:23:00,
2013-01-11 03:32:00,62.0,-99.9,30.07,SSE,152,7.0,9.0,-999,-99.99,,,-99.99,,2013-01-11 09:32:00,
2013-01-11 03:43:00,62.0,-99.9,30.07,SSE,155,7.0,9.0,-999,-99.99,,,-99.99,,2013-01-11 09:43:00,
2013-01-11 03:53:00,62.0,-99.9,30.06,SSE,159,6.0,7.0,-999,-99.99,,,-99.99,,2013-01-11 09:53:00,
2013-01-11 04:02:00,62.0,-99.9,30.06,SSE,159,6.0,6.0,-999,-99.99,,,-99.99,,2013-01-11 10:02:00,
2013-01-11 04:12:00,62.0,-99.9,30.06,South,169,3.0,4.0,-999,-99.99,,,-99.99,,2013-01-11 10:12:00,
2013-01-11 04:22:00,62.0,-99.9,30.06,SSE,168,3.0,4.0,-999,-99.99,,,-99.99,,2013-01-11 10:22:00,
2013-01-11 04:32:00,62.0,-99.9,30.06,SSE,149,5.0,6.0,-999,-99.99,,,-99.99,,2013-01-11 10:32:00,
2013-01-11 04:43:00,62.0,-99.9,30.06,SSE,163,6.0,8.0,-999,-99.99,,,-99.99,,2013-01-11 10:43:00,
2013-01-11 04:53:00,61.0,-99.9,30.07,SSE,155,4.0,5.0,-999,-99.99,,,-99.99,,2013-01-11 10:53:00,
2013-01-11 05:03:00,61.0,-99.9,30.07,SSE,157,4.0,6.0,-999,-99.99,,,-99.99,,2013-01-11 11:03:00,
2013-01-11 05:12:00,61.0,-99.9,30.07,SSE,153,5.0,7.0,-999,-99.99,,,-99.99,,2013-01-11 11:12:00,
2013-01-11 05:23:00,61.0,-99.9,30.07,SSE,157,7.0,9.0,-999,-99.99,,,-99.99,,2013-01-11 11:23:00,
2013-01-11 05:33:00,62.0,-99.9,30.07,SSE,157,8.0,10.0,-999,-99.99,,,-99.99,,2013-01-11 11:33:00,
2013-01-11 05:43:00,62.0,-99.9,30.08,SSE,156,9.0,12.0,-999,-99.99,,,-99.99,,2013-01-11 11:43:00,
2013-01-11 05:53:00,62.0,-99.9,30.08,SSE,157,8.0,9.0,-999,-99.99,,,-99.99,,2013-01-11 11:53:00,
2013-01-11 06:03:00,62.0,-99.9,30.08,SSE,160,8.0,10.0,-999,-99.99,,,-99.99,,2013-01-11 12:03:00,
2013-01-11 06:12:00,61.0,-99.9,30.09,SSE,160,8.0,10.0,-999,-99.99,,,-99.99,,2013-01-11 12:12:00,
2013-01-11 06:23:00,60.0,-99.9,30.09,South,169,6.0,7.0,-999,-99.99,,,-99.99,,2013-01-11 12:23:00,
2013-01-11 06:33:00,59.0,-99.9,30.09,South,174,5.0,7.0,-999,-99.99,,,-99.99,,2013-01-11 12:33:00,
2013-01-11 06:43:00,60.0,-99.9,30.10,South,169,8.0,10.0,-999,-99.99,,,-99.99,,2013-01-11 12:43:00,
2013-01-11 06:53:00,60.0,-99.9,30.10,South,173,9.0,11.0,-999,-99.99,,,-99.99,,2013-01-11 12:53:00,
2013-01-11 07:03:00,60.0,-99.9,30.10,South,171,9.0,11.0,-999,-99.99,,,-99.99,,2013-01-11 13:03:00,
2013-01-11 07:13:00,61.0,-99.9,30.10,South,178,8.0,11.0,-999,-99.99,,,-99.99,,2013-01-11 13:13:00,
2013-01-11 07:23:00,60.0,-99.9,30.11,South,175,7.0,7.0,-999,-99.99,,,-99.99,,2013-01-11 13:23:00,
2013-01-11 07:33:00,60.0,-99.9,30.11,South,176,6.0,7.0,-999,-99.99,,,-99.99,,2013-01-11 13:33:00,
2013-01-11 07:43:00,61.0,-99.9,30.11,South,170,4.0,4.0,-999,-99.99,,,-99.99,,2013-01-11 13:43:00,
2013-01-11 07:53:00,61.0,-99.9,30.11,SSE,164,4.0,4.0,-999,-99.99,,,-99.99,,2013-01-11 13:53:00,
2013-01-11 08:03:00,62.0,-99.9,30.11,SSE,160,4.0,5.0,-999,-99.99,,,-99.99,,2013-01-11 14:03:00,
2013-01-11 08:12:00,62.0,-99.9,30.11,SSE,160,4.0,5.0,-999,-99.99,,,-99.99,,2013-01-11 14:12:00,
2013-01-11 08:23:00,63.0,-99.9,30.11,SSE,165,5.0,7.0,-999,-99.99,,,-99.99,,2013-01-11 14:23:00,
2013-01-11 08:33:00,64.0,-99.9,30.12,South,180,4.0,6.0,-999,-99.99,,,-99.99,,2013-01-11 14:33:00,
2013-01-11 08:43:00,63.0,-99.9,30.12,SSE,157,4.0,6.0,-999,-99.99,,,-99.99,,2013-01-11 14:43:00,
2013-01-11 08:53:00,64.0,-99.9,30.13,South,169,4.0,5.0,-999,-99.99,,,-99.99,,2013-01-11 14:53:00,
2013-01-11 09:03:00,64.0,-99.9,30.13,SSE,163,4.0,5.0,-999,-99.99,,,-99.99,,2013-01-11 15:03:00,
2013-01-11 09:13:00,63.0,-99.9,30.13,SSE,161,5.0,7.0,-999,-99.99,,,-99.99,,2013-01-11 15:13:00,
2013-01-11 09:23:00,64.0,-99.9,30.13,SSE,154,6.0,8.0,-999,-99.99,,,-99.99,,2013-01-11 15:23:00,
2013-01-11 09:33:00,65.0,-99.9,30.14,South,180,4.0,6.0,-999,-99.99,,,-99.99,,2013-01-11 15:33:00,
2013-01-11 09:43:00,63.0,-99.9,30.14,SSE,150,6.0,8.0,-999,-99.99,,,-99.99,,2013-01-11 15:43:00,
2013-01-11 09:53:00,65.0,-99.9,30.13,SE,141,7.0,9.0,-999,-99.99,,,-99.99,,2013-01-11 15:53:00,
2013-01-11 10:03:00,66.0,-99.9,30.14,SE,143,7.0,9.0,-999,-99.99,,,-99.99,,2013-01-11 16:03:00,
2013-01-11 10:13:00,66.0,-99.9,30.13,SE,146,8.0,10.0,-999,-99.99,,,-99.99,,2013-01-11 16:13:00,
2013-01-11 10:23:00,67.0,-99.9,30.13,SSE,149,7.0,10.0,-999,-99.99,,,-99.99,,2013-01-11 16:23:00,
2013-01-11 10:33:00,67.0,-99.9,30.13,SE,143,9.0,11.0,-999,-99.99,,,-99.99,,2013-01-11 16:33:00,
2013-01-11 10:43:00,67.0,-99.9,30.13,SSE,148,8.0,10.0,-999,-99.99,,,-99.99,,2013-01-11 16:43:00,
2013-01-11 10:53:00,68.0,-99.9,30.13,SE,144,9.0,11.0,-999,-99.99,,,-99.99,,2013-01-11 16:53:00,
2013-01-11 11:03:00,68.0,-99.9,30.13,SE,143,9.0,11.0,-999,-99.99,,,-99.99,,2013-01-11 17:03:00,
2013-01-11 11:12:00,68.0,-99.9,30.12,SE,141,11.0,13.0,-999,-99.99,,,-99.99,,2013-01-11 17:12:00,
2013-01-11 11:22:00,68.0,-99.9,30.11,SE,134,10.0,13.0,-999,-99.99,,,-99.99,,2013-01-11 17:22:00,
2013-01-11 11:33:00,69.0,-99.9,30.11,SE,138,12.0,16.0,-999,-99.99,,,-99.99,,2013-01-11 17:33:00,
2013-01-11 11:43:00,69.0,-99.9,30.11,SE,135,13.0,15.0,-999,-99.99,,,-99.99,,2013-01-11 17:43:00,
2013-01-11 11:53:00,69.0,-99.9,30.11,SE,136,13.0,15.0,-999,-99.99,,,-99.99,,2013-01-11 17:53:00,
2013-01-11 12:04:00,69.0,-99.9,30.10,SE,136,13.0,16.0,-999,-99.99,,,-99.99,,2013-01-11 18:04:00,
2013-01-11 12:13:00,69.0,-99.9,30.10,SE,129,14.0,18.0,-999,-99.99,,,-99.99,,2013-01-11 18:13:00,
2013-01-11 12:24:00,69.0,-99.9,30.09,SE,128,15.0,20.0,-999,-99.99,,,-99.99,,2013-01-11 18:24:00,
2013-01-11 12:33:00,69.0,-99.9,30.09,SE,129,14.0,19.0,-999,-99.99,,,-99.99,,2013-01-11 18:33:00,
2013-01-11 12:43:00,69.0,-99.9,30.09,SE,125,13.0,16.0,-999,-99.99,,,-99.99,,2013-01-11 18:43:00,
2013-01-11 12:53:00,69.0,-99.9,30.08,SE,126,14.0,18.0,-999,-99.99,,,-99.99,,2013-01-11 18:53:00,
2013-01-11 13:03:00,69.0,-99.9,30.07,ESE,122,13.0,18.0,-999,-99.99,,,-99.99,,2013-01-11 19:03:00,
2013-01-11 13:13:00,69.0,-99.9,30.07,ESE,121,14.0,18.0,-999,-99.99,,,-99.99,,2013-01-11 19:13:00,
2013-01-11 13:23:00,69.0,-99.9,30.07,ESE,122,14.0,19.0,-999,-99.99,,,-99.99,,2013-01-11 19:23:00,
2013-01-11 13:33:00,70.0,-99.9,30.06,ESE,119,14.0,17.0,-999,-99.99,,,-99.99,,2013-01-11 19:33:00,
2013-01-11 13:43:00,70.0,-99.9,30.06,ESE,119,15.0,21.0,-999,-99.99,,,-99.99,,2013-01-11 19:43:00,
2013-01-11 13:54:00,69.0,-99.9,30.05,ESE,122,15.0,20.0,-999,-99.99,,,-99.99,,2013-01-11 19:54:00,
2013-01-11 14:03:00,70.0,-99.9,30.05,ESE,123,15.0,20.0,-999,-99.99,,,-99.99,,2013-01-11 20:03:00,
2013-01-11 14:13:00,70.0,-99.9,30.05,SE,125,15.0,21.0,-999,-99.99,,,-99.99,,2013-01-11 20:13:00,
2013-01-11 14:23:00,69.0,-99.9,30.05,SE,127,14.0,19.0,-999,-99.99,,,-99.99,,2013-01-11 20:23:00,
2013-01-11 14:33:00,69.0,-99.9,30.05,SE,126,14.0,18.0,-999,-99.99,,,-99.99,,2013-01-11 20:33:00,
2013-01-11 14:43:00,69.0,-99.9,30.06,ESE,123,13.0,17.0,-999,-99.99,,,-99.99,,2013-01-11 20:43:00,
2013-01-11 14:53:00,69.0,-99.9,30.06,SE,130,13.0,19.0,-999,-99.99,,,-99.99,,2013-01-11 20:53:00,
2013-01-11 15:03:00,69.0,-99.9,30.05,SE,127,14.0,19.0,-999,-99.99,,,-99.99,,2013-01-11 21:03:00,
2013-01-11 15:13:00,69.0,-99.9,30.05,ESE,123,14.0,19.0,-999,-99.99,,,-99.99,,2013-01-11 21:13:00,
2013-01-11 15:23:00,69.0,-99.9,30.05,SE,124,13.0,16.0,-999,-99.99,,,-99.99,,2013-01-11 21:23:00,
2013-01-11 15:33:00,69.0,-99.9,30.05,SE,126,13.0,17.0,-999,-99.99,,,-99.99,,2013-01-11 21:33:00,
2013-01-11 15:43:00,69.0,-99.9,30.05,SE,124,13.0,16.0,-999,-99.99,,,-99.99,,2013-01-11 21:43:00,
2013-01-11 15:53:00,69.0,-99.9,30.05,ESE,120,12.0,15.0,-999,-99.99,,,-99.99,,2013-01-11 21:53:00,
2013-01-11 16:03:00,69.0,-99.9,30.05,ESE,122,13.0,16.0,-999,-99.99,,,-99.99,,2013-01-11 22:03:00,
2013-01-11 16:13:00,69.0,-99.9,30.04,SE,126,13.0,16.0,-999,-99.99,,,-99.99,,2013-01-11 22:13:00,
2013-01-11 16:23:00,69.0,-99.9,30.05,SE,127,13.0,19.0,-999,-99.99,,,-99.99,,2013-01-11 22:23:00,
2013-01-11 16:33:00,69.0,-99.9,30.05,SE,124,13.0,18.0,-999,-99.99,,,-99.99,,2013-01-11 22:33:00,
2013-01-11 16:43:00,68.0,-99.9,30.05,SE,127,13.0,16.0,-999,-99.99,,,-99.99,,2013-01-11 22:43:00,
2013-01-11 16:53:00,67.0,-99.9,30.05,SE,131,13.0,17.0,-999,-99.99,,,-99.99,,2013-01-11 22:53:00,
2013-01-11 17:03:00,67.0,-99.9,30.05,SE,127,14.0,18.0,-999,-99.99,,,-99.99,,2013-01-11 23:03:00,
2013-01-11 17:13:00,67.0,-99.9,30.05,SE,130,13.0,17.0,-999,-99.99,,,-99.99,,2013-01-11 23:13:00,
2013-01-11 17:23:00,67.0,-99.9,30.05,SE,134,13.0,18.0,-999,-99.99,,,-99.99,,2013-01-11 23:23:00,
2013-01-11 17:33:00,67.0,-99.9,30.06,SE,135,13.0,16.0,-999,-99.99,,,-99.99,,2013-01-11 23:33:00,
2013-01-11 17:43:00,67.0,-99.9,30.05,SE,132,15.0,19.0,-999,-99.99,,,-99.99,,2013-01-11 23:43:00,
2013-01-11 17:54:00,67.0,-99.9,30.06,SE,132,13.0,16.0,-999,-99.99,,,-99.99,,2013-01-11 23:54:00,
2013-01-11 18:03:00,67.0,-99.9,30.06,SE,132,15.0,18.0,-999,-99.99,,,-99.99,,2013-01-12 00:03:00,
2013-01-11 18:12:00,67.0,-99.9,30.06,SE,134,14.0,18.0,-999,-99.99,,,-99.99,,2013-01-12 00:12:00,
2013-01-11 18:23:00,67.0,-99.9,30.06,SE,132,13.0,17.0,-999,-99.99,,,-99.99,,2013-01-12 00:23:00,
2013-01-11 18:33:00,66.0,-99.9,30.06,SE,133,12.0,16.0,-999,-99.99,,,-99.99,,2013-01-12 00:33:00,
2013-01-11 18:43:00,66.0,-99.9,30.06,SE,131,14.0,18.0,-999,-99.99,,,-99.99,,2013-01-12 00:43:00,
2013-01-11 18:53:00,66.0,-99.9,30.06,SE,137,13.0,16.0,-999,-99.99,,,-99.99,,2013-01-12 00:53:00,
2013-01-11 19:03:00,66.0,-99.9,30.06,SE,136,14.0,18.0,-999,-99.99,,,-99.99,,2013-01-12 01:03:00,
2013-01-11 19:13:00,66.0,-99.9,30.06,SE,132,14.0,18.0,-999,-99.99,,,-99.99,,2013-01-12 01:13:00,
2013-01-11 19:22:00,66.0,-99.9,30.06,SE,131,14.0,17.0,-999,-99.99,,,-99.99,,2013-01-12 01:22:00,
2013-01-11 19:33:00,66.0,-99.9,30.07,SE,132,12.0,15.0,-999,-99.99,,,-99.99,,2013-01-12 01:33:00,
2013-01-11 19:43:00,66.0,-99.9,30.08,SE,134,11.0,14.0,-999,-99.99,,,-99.99,,2013-01-12 01:43:00,
2013-01-11 19:53:00,66.0,-99.9,30.08,SE,127,13.0,16.0,-999,-99.99,,,-99.99,,2013-01-12 01:53:00,
2013-01-11 20:03:00,67.0,-99.9,30.08,SE,124,14.0,17.0,-999,-99.99,,,-99.99,,2013-01-12 02:03:00,
2013-01-11 20:12:00,67.0,-99.9,30.08,ESE,120,13.0,17.0,-999,-99.99,,,-99.99,,2013-01-12 02:12:00,
2013-01-11 20:22:00,67.0,-99.9,30.08,ESE,119,13.0,17.0,-999,-99.99,,,-99.99,,2013-01-12 02:22:00,
2013-01-11 20:33:00,67.0,-99.9,30.07,ESE,118,13.0,19.0,-999,-99.99,,,-99.99,,2013-01-12 02:33:00,
2013-01-11 20:43:00,67.0,-99.9,30.08,ESE,112,10.0,14.0,-999,-99.99,,,-99.99,,2013-01-12 02:43:00,
2013-01-11 20:53:00,67.0,-99.9,30.08,ESE,112,12.0,15.0,-999,-99.99,,,-99.99,,2013-01-12 02:53:00,
2013-01-11 21:03:00,67.0,-99.9,30.08,ESE,109,12.0,15.0,-999,-99.99,,,-99.99,,2013-01-12 03:03:00,
2013-01-11 21:12:00,67.0,-99.9,30.09,ESE,114,12.0,16.0,-999,-99.99,,,-99.99,,2013-01-12 03:12:00,
2013-01-11 21:22:00,67.0,-99.9,30.09,ESE,121,13.0,18.0,-999,-99.99,,,-99.99,,2013-01-12 03:22:00,
2013-01-11 21:33:00,67.0,-99.9,30.09,SE,124,13.0,18.0,-999,-99.99,,,-99.99,,2013-01-12 03:33:00,
2013-01-11 21:43:00,67.0,-99.9,30.08,ESE,120,14.0,19.0,-999,-99.99,,,-99.99,,2013-01-12 03:43:00,
2013-01-11 21:53:00,66.0,-99.9,30.08,ESE,121,14.0,19.0,-999,-99.99,,,-99.99,,2013-01-12 03:53:00,
2013-01-11 22:03:00,67.0,-99.9,30.08,SE,125,14.0,18.0,-999,-99.99,,,-99.99,,2013-01-12 04:03:00,
2013-01-11 22:12:00,66.0,-99.9,30.09,SE,125,13.0,19.0,-999,-99.99,,,-99.99,,2013-01-12 04:12:00,
2013-01-11 22:22:00,66.0,-99.9,30.08,SE,126,14.0,19.0,-999,-99.99,,,-99.99,,2013-01-12 04:22:00,
2013-01-11 22:33:00,66.0,-99.9,30.08,SE,127,14.0,17.0,-999,-99.99,,,-99.99,,2013-01-12 04:33:00,
2013-01-11 22:43:00,66.0,-99.9,30.08,SE,128,14.0,18.0,-999,-99.99,,,-99.99,,2013-01-12 04:43:00,
2013-01-11 22:53:00,65.0,-99.9,30.08,SE,128,14.0,19.0,-999,-99.99,,,-99.99,,2013-01-12 04:53:00,
2013-01-11 23:03:00,65.0,-99.9,30.08,SE,125,13.0,18.0,-999,-99.99,,,-99.99,,2013-01-12 05:03:00,
2013-01-11 23:12:00,65.0,-99.9,30.08,SE,125,15.0,18.0,-999,-99.99,,,-99.99,,2013-01-12 05:12:00,
2013-01-11 23:22:00,65.0,-99.9,30.08,ESE,122,14.0,19.0,-999,-99.99,,,-99.99,,2013-01-12 05:22:00,
2013-01-11 23:32:00,65.0,-99.9,30.08,SE,124,13.0,17.0,-999,-99.99,,,-99.99,,2013-01-12 05:32:00,
2013-01-11 23:42:00,65.0,-99.9,30.08,SE,129,15.0,19.0,-999,-99.99,,,-99.99,,2013-01-12 05:42:00,
2013-01-11 23:53:00,65.0,-99.9,30.07,SE,128,13.0,17.0,-999,-99.99,,,-99.99,,2013-01-12 05:53:00,